createdAt,value
2018-09-23T00:00:29.407Z,725.95
2018-09-23T00:01:29.881Z,725.64
2018-09-23T00:02:30.350Z,725.67
2018-09-23T00:03:30.817Z,726.22
2018-09-23T00:04:31.288Z,726.06
2018-09-23T00:05:31.761Z,726.19
2018-09-23T00:06:32.228Z,726.02
2018-09-23T00:07:32.700Z,725.90
2018-09-23T00:08:33.169Z,726.74
2018-09-23T00:09:33.640Z,725.82
2018-09-23T00:10:34.111Z,726.11
2018-09-23T00:11:34.581Z,726.26
2018-09-23T00:12:35.050Z,726.00
2018-09-23T00:13:35.522Z,726.16
2018-09-23T00:14:35.991Z,725.98
2018-09-23T00:15:36.464Z,725.48
2018-09-23T00:16:36.936Z,726.14
2018-09-23T00:17:37.419Z,725.88
2018-09-23T00:18:37.876Z,726.59
2018-09-23T00:19:38.351Z,726.23
2018-09-23T00:20:38.822Z,726.40
2018-09-23T00:21:39.291Z,725.91
2018-09-23T00:22:39.968Z,726.20
2018-09-23T00:23:40.235Z,726.09
2018-09-23T00:24:40.706Z,725.89
2018-09-23T00:25:41.179Z,725.67
2018-09-23T00:26:41.653Z,725.91
2018-09-23T00:27:42.131Z,725.71
2018-09-23T00:28:42.597Z,726.02
2018-09-23T00:29:43.074Z,725.77
2018-09-23T00:30:43.543Z,725.63
2018-09-23T00:31:44.019Z,725.90
2018-09-23T00:32:44.489Z,725.46
2018-09-23T00:33:44.962Z,726.52
2018-09-23T00:34:45.436Z,726.46
2018-09-23T00:35:45.912Z,726.08
2018-09-23T00:36:46.382Z,726.02
2018-09-23T00:37:46.858Z,726.12
2018-09-23T00:38:47.335Z,726.50
2018-09-23T00:39:47.807Z,725.68
2018-09-23T00:40:48.278Z,725.83
2018-09-23T00:41:48.752Z,726.55
2018-09-23T00:42:49.224Z,725.82
2018-09-23T00:43:49.698Z,726.04
2018-09-23T00:44:50.173Z,725.84
2018-09-23T00:45:50.646Z,725.99
2018-09-23T00:46:51.120Z,725.69
2018-09-23T00:47:51.591Z,726.31
2018-09-23T00:48:52.062Z,725.94
2018-09-23T00:49:52.539Z,726.03
2018-09-23T00:50:53.008Z,726.08
2018-09-23T00:51:53.484Z,725.87
2018-09-23T00:52:53.957Z,726.51
2018-09-23T00:53:54.425Z,725.98
2018-09-23T00:54:54.896Z,725.83
2018-09-23T00:55:55.367Z,725.86
2018-09-23T00:56:55.840Z,726.23
2018-09-23T00:57:56.309Z,726.47
2018-09-23T00:58:56.781Z,725.90
2018-09-23T00:59:57.253Z,726.39
2018-09-23T01:00:57.721Z,725.16
2018-09-23T01:01:58.192Z,725.57
2018-09-23T01:02:58.664Z,726.24
2018-09-23T01:03:59.134Z,726.00
2018-09-23T01:04:59.603Z,725.47
2018-09-23T01:06:00.076Z,725.65
2018-09-23T01:07:00.544Z,725.53
2018-09-23T01:08:01.017Z,725.97
2018-09-23T01:09:01.487Z,726.44
2018-09-23T01:10:01.982Z,726.67
2018-09-23T01:11:02.424Z,726.00
2018-09-23T01:12:02.896Z,725.92
2018-09-23T01:13:03.364Z,726.26
2018-09-23T01:14:03.837Z,725.57
2018-09-23T01:15:04.305Z,725.46
2018-09-23T01:16:04.776Z,725.84
2018-09-23T01:17:05.243Z,725.97
2018-09-23T01:18:05.715Z,725.79
2018-09-23T01:19:06.185Z,725.19
2018-09-23T01:20:06.655Z,725.28
2018-09-23T01:21:07.125Z,726.53
2018-09-23T01:22:07.596Z,725.98
2018-09-23T01:23:08.068Z,726.45
2018-09-23T01:24:08.538Z,726.04
2018-09-23T01:25:09.008Z,726.39
2018-09-23T01:26:09.480Z,726.08
2018-09-23T01:27:09.954Z,725.71
2018-09-23T01:28:10.422Z,726.30
2018-09-23T01:29:10.899Z,725.92
2018-09-23T01:30:11.365Z,725.76
2018-09-23T01:31:11.839Z,725.93
2018-09-23T01:32:12.310Z,725.31
2018-09-23T01:33:12.781Z,725.59
2018-09-23T01:34:13.254Z,725.97
2018-09-23T01:35:13.726Z,725.89
2018-09-23T01:36:14.200Z,725.93
2018-09-23T01:37:14.721Z,726.03
2018-09-23T01:38:15.145Z,725.67
2018-09-23T01:39:15.617Z,726.14
2018-09-23T01:40:16.089Z,726.06
2018-09-23T01:41:16.562Z,725.73
2018-09-23T01:42:17.035Z,726.09
2018-09-23T01:43:17.508Z,726.39
2018-09-23T01:44:17.981Z,725.58
2018-09-23T01:45:18.455Z,726.34
2018-09-23T01:46:18.930Z,726.55
2018-09-23T01:47:19.401Z,726.22
2018-09-23T01:48:19.876Z,726.33
2018-09-23T01:49:20.352Z,726.36
2018-09-23T01:50:20.823Z,726.49
2018-09-23T01:51:21.302Z,726.40
2018-09-23T01:52:21.773Z,726.20
2018-09-23T01:53:22.244Z,726.31
2018-09-23T01:54:22.721Z,726.02
2018-09-23T01:55:23.198Z,725.86
2018-09-23T01:56:23.669Z,726.67
2018-09-23T01:57:24.139Z,726.35
2018-09-23T01:58:24.614Z,725.87
2018-09-23T01:59:25.092Z,725.80
2018-09-23T02:00:25.562Z,726.29
2018-09-23T02:01:26.034Z,725.89
2018-09-23T02:02:26.505Z,725.97
2018-09-23T02:03:26.978Z,725.97
2018-09-23T02:04:27.452Z,725.70
2018-09-23T02:05:27.925Z,725.99
2018-09-23T02:06:28.395Z,725.76
2018-09-23T02:07:28.867Z,726.01
2018-09-23T02:08:29.339Z,725.81
2018-09-23T02:09:29.811Z,726.29
2018-09-23T02:10:30.281Z,726.31
2018-09-23T02:11:30.753Z,726.26
2018-09-23T02:12:31.226Z,726.38
2018-09-23T02:13:31.693Z,726.14
2018-09-23T02:14:32.165Z,726.19
2018-09-23T02:15:32.636Z,726.30
2018-09-23T02:16:33.109Z,725.92
2018-09-23T02:17:33.576Z,725.88
2018-09-23T02:18:34.048Z,725.94
2018-09-23T02:19:34.519Z,726.14
2018-09-23T02:20:34.987Z,726.09
2018-09-23T02:21:35.457Z,726.09
2018-09-23T02:22:35.927Z,725.68
2018-09-23T02:23:36.399Z,726.05
2018-09-23T02:24:36.877Z,726.27
2018-09-23T02:25:37.401Z,725.52
2018-09-23T02:26:37.808Z,725.87
2018-09-23T02:27:38.285Z,726.46
2018-09-23T02:28:38.750Z,726.39
2018-09-23T02:29:39.220Z,725.81
2018-09-23T02:30:39.702Z,725.57
2018-09-23T02:31:40.160Z,725.92
2018-09-23T02:32:40.635Z,726.13
2018-09-23T02:33:41.108Z,726.33
2018-09-23T02:34:41.573Z,726.04
2018-09-23T02:35:42.046Z,726.19
2018-09-23T02:36:42.514Z,726.31
2018-09-23T02:37:42.987Z,726.29
2018-09-23T02:38:43.458Z,725.76
2018-09-23T02:39:43.931Z,726.03
2018-09-23T02:40:44.405Z,726.00
2018-09-23T02:41:44.873Z,726.06
2018-09-23T02:42:45.344Z,726.09
2018-09-23T02:43:45.816Z,725.90
2018-09-23T02:44:46.287Z,725.98
2018-09-23T02:45:46.760Z,726.20
2018-09-23T02:46:47.236Z,726.13
2018-09-23T02:47:47.907Z,726.11
2018-09-23T02:48:48.179Z,725.80
2018-09-23T02:49:48.852Z,725.75
2018-09-23T02:50:49.124Z,726.27
2018-09-23T02:51:49.596Z,726.18
2018-09-23T02:52:50.072Z,725.97
2018-09-23T02:53:50.543Z,725.90
2018-09-23T02:54:51.016Z,726.08
2018-09-23T02:55:51.492Z,726.01
2018-09-23T02:56:51.963Z,725.79
2018-09-23T02:57:52.437Z,726.08
2018-09-23T02:58:52.911Z,726.26
2018-09-23T02:59:53.386Z,725.93
2018-09-23T03:00:53.860Z,726.07
2018-09-23T03:01:54.332Z,726.25
2018-09-23T03:02:54.813Z,725.60
2018-09-23T03:03:55.282Z,725.91
2018-09-23T03:04:55.757Z,726.36
2018-09-23T03:05:56.231Z,726.35
2018-09-23T03:06:56.702Z,725.91
2018-09-23T03:07:57.175Z,726.05
2018-09-23T03:08:57.650Z,726.27
2018-09-23T03:09:58.123Z,726.54
2018-09-23T03:10:58.594Z,726.38
2018-09-23T03:11:59.070Z,726.23
2018-09-23T03:12:59.542Z,726.01
2018-09-23T03:14:00.013Z,726.29
2018-09-23T03:15:00.488Z,726.10
2018-09-23T03:16:00.960Z,726.26
2018-09-23T03:17:01.432Z,726.36
2018-09-23T03:18:01.902Z,726.22
2018-09-23T03:19:02.376Z,726.14
2018-09-23T03:20:02.848Z,726.12
2018-09-23T03:21:03.320Z,726.08
2018-09-23T03:22:03.790Z,726.38
2018-09-23T03:23:04.262Z,726.02
2018-09-23T03:24:04.734Z,726.08
2018-09-23T03:25:05.206Z,726.46
2018-09-23T03:26:05.674Z,726.39
2018-09-23T03:27:06.145Z,726.39
2018-09-23T03:28:06.616Z,726.61
2018-09-23T03:29:07.087Z,726.50
2018-09-23T03:30:07.556Z,726.23
2018-09-23T03:31:08.027Z,726.53
2018-09-23T03:32:08.496Z,726.58
2018-09-23T03:33:08.967Z,726.43
2018-09-23T03:34:09.436Z,726.64
2018-09-23T03:35:09.907Z,726.79
2018-09-23T03:36:10.377Z,726.61
2018-09-23T03:37:10.848Z,726.31
2018-09-23T03:38:11.519Z,726.68
2018-09-23T03:39:11.786Z,726.47
2018-09-23T03:40:12.259Z,726.32
2018-09-23T03:41:12.728Z,726.03
2018-09-23T03:42:13.199Z,726.37
2018-09-23T03:43:13.673Z,726.24
2018-09-23T03:44:14.139Z,726.25
2018-09-23T03:45:14.612Z,726.08
2018-09-23T03:46:15.085Z,726.24
2018-09-23T03:47:15.553Z,726.40
2018-09-23T03:48:16.022Z,726.18
2018-09-23T03:49:16.496Z,726.29
2018-09-23T03:50:16.964Z,726.33
2018-09-23T03:51:17.438Z,726.62
2018-09-23T03:52:17.914Z,726.39
2018-09-23T03:53:18.380Z,726.50
2018-09-23T03:54:18.855Z,726.36
2018-09-23T03:55:19.324Z,726.42
2018-09-23T03:56:19.796Z,726.08
2018-09-23T03:57:20.268Z,726.28
2018-09-23T03:58:20.742Z,725.97
2018-09-23T03:59:21.214Z,725.94
2018-09-23T04:00:21.685Z,725.97
2018-09-23T04:01:22.159Z,726.56
2018-09-23T04:02:22.633Z,726.52
2018-09-23T04:03:23.104Z,726.62
2018-09-23T04:04:23.581Z,726.37
2018-09-23T04:05:24.052Z,726.27
2018-09-23T04:06:24.525Z,725.98
2018-09-23T04:07:24.999Z,726.23
2018-09-23T04:08:25.471Z,726.02
2018-09-23T04:09:25.949Z,726.62
2018-09-23T04:10:26.418Z,726.66
2018-09-23T04:11:26.893Z,726.32
2018-09-23T04:12:27.368Z,726.51
2018-09-23T04:13:27.841Z,726.42
2018-09-23T04:14:28.313Z,726.45
2018-09-23T04:15:28.789Z,726.38
2018-09-23T04:16:29.266Z,726.04
2018-09-23T04:17:29.736Z,725.89
2018-09-23T04:18:30.211Z,725.84
2018-09-23T04:19:30.684Z,726.47
2018-09-23T04:20:31.158Z,726.27
2018-09-23T04:21:31.630Z,726.20
2018-09-23T04:22:32.103Z,726.26
2018-09-23T04:23:32.576Z,726.60
2018-09-23T04:24:33.048Z,726.37
2018-09-23T04:25:33.526Z,726.22
2018-09-23T04:26:33.995Z,725.75
2018-09-23T04:27:34.470Z,726.16
2018-09-23T04:28:34.942Z,726.53
2018-09-23T04:29:35.412Z,726.31
2018-09-23T04:30:35.883Z,726.34
2018-09-23T04:31:36.355Z,726.28
2018-09-23T04:32:36.827Z,726.11
2018-09-23T04:33:37.297Z,726.46
2018-09-23T04:34:37.770Z,726.13
2018-09-23T04:35:38.243Z,726.08
2018-09-23T04:36:38.715Z,726.12
2018-09-23T04:37:39.183Z,726.89
2018-09-23T04:38:39.653Z,726.81
2018-09-23T04:39:40.128Z,726.57
2018-09-23T04:40:40.593Z,726.20
2018-09-23T04:41:41.065Z,726.52
2018-09-23T04:42:41.533Z,726.06
2018-09-23T04:43:42.005Z,726.50
2018-09-23T04:44:42.476Z,726.49
2018-09-23T04:45:42.947Z,726.59
2018-09-23T04:46:43.418Z,726.41
2018-09-23T04:47:43.886Z,726.75
2018-09-23T04:48:44.356Z,726.41
2018-09-23T04:49:44.827Z,726.42
2018-09-23T04:50:45.295Z,726.20
2018-09-23T04:51:45.768Z,726.63
2018-09-23T04:52:46.237Z,726.64
2018-09-23T04:53:46.708Z,726.37
2018-09-23T04:54:47.178Z,726.21
2018-09-23T04:55:47.650Z,726.34
2018-09-23T04:56:48.124Z,726.26
2018-09-23T04:57:48.591Z,726.40
2018-09-23T04:58:49.061Z,726.27
2018-09-23T04:59:49.735Z,726.30
2018-09-23T05:00:50.005Z,726.17
2018-09-23T05:01:50.476Z,725.93
2018-09-23T05:02:50.949Z,726.64
2018-09-23T05:03:51.420Z,726.51
2018-09-23T05:04:51.890Z,726.53
2018-09-23T05:05:52.363Z,726.63
2018-09-23T05:06:52.834Z,726.67
2018-09-23T05:07:53.308Z,726.56
2018-09-23T05:08:53.777Z,726.68
2018-09-23T05:09:54.252Z,726.56
2018-09-23T05:10:54.727Z,726.88
2018-09-23T05:11:55.196Z,726.71
2018-09-23T05:12:55.670Z,726.83
2018-09-23T05:13:56.143Z,726.59
2018-09-23T05:14:56.614Z,726.28
2018-09-23T05:15:57.089Z,726.64
2018-09-23T05:16:57.561Z,726.72
2018-09-23T05:17:58.036Z,726.46
2018-09-23T05:18:58.559Z,726.83
2018-09-23T05:19:58.983Z,726.75
2018-09-23T05:20:59.455Z,726.73
2018-09-23T05:21:59.931Z,726.54
2018-09-23T05:23:00.405Z,725.89
2018-09-23T05:24:00.878Z,726.34
2018-09-23T05:25:01.360Z,726.73
2018-09-23T05:26:01.827Z,726.17
2018-09-23T05:27:02.300Z,726.41
2018-09-23T05:28:02.772Z,726.32
2018-09-23T05:29:03.247Z,726.41
2018-09-23T05:30:03.721Z,726.68
2018-09-23T05:31:04.238Z,726.25
2018-09-23T05:32:04.669Z,726.37
2018-09-23T05:33:05.143Z,726.52
2018-09-23T05:34:05.614Z,725.81
2018-09-23T05:35:06.089Z,726.64
2018-09-23T05:36:06.562Z,726.35
2018-09-23T05:37:07.034Z,726.47
2018-09-23T05:38:07.508Z,726.83
2018-09-23T05:39:07.979Z,727.03
2018-09-23T05:40:08.452Z,726.54
2018-09-23T05:41:08.926Z,726.47
2018-09-23T05:42:09.398Z,726.91
2018-09-23T05:43:09.866Z,726.37
2018-09-23T05:44:10.340Z,726.50
2018-09-23T05:45:10.811Z,726.39
2018-09-23T05:46:11.283Z,726.05
2018-09-23T05:47:11.753Z,726.34
2018-09-23T05:48:12.223Z,726.20
2018-09-23T05:49:12.694Z,726.41
2018-09-23T05:50:13.166Z,726.61
2018-09-23T05:51:13.636Z,726.46
2018-09-23T05:52:14.107Z,726.64
2018-09-23T05:53:14.619Z,726.52
2018-09-23T05:54:15.051Z,726.58
2018-09-23T05:55:15.523Z,726.68
2018-09-23T05:56:15.991Z,726.53
2018-09-23T05:57:16.461Z,726.46
2018-09-23T05:58:16.930Z,726.34
2018-09-23T05:59:17.398Z,725.92
2018-09-23T06:00:17.868Z,726.24
2018-09-23T06:01:18.339Z,726.62
2018-09-23T06:02:18.811Z,726.51
2018-09-23T06:03:19.281Z,726.39
2018-09-23T06:04:19.752Z,726.54
2018-09-23T06:05:20.223Z,726.76
2018-09-23T06:06:20.694Z,726.16
2018-09-23T06:07:21.161Z,726.50
2018-09-23T06:08:21.633Z,726.77
2018-09-23T06:09:22.107Z,726.03
2018-09-23T06:10:22.578Z,726.52
2018-09-23T06:11:23.050Z,726.67
2018-09-23T06:12:23.520Z,726.65
2018-09-23T06:13:23.991Z,726.71
2018-09-23T06:14:24.461Z,726.74
2018-09-23T06:15:24.933Z,726.40
2018-09-23T06:16:25.406Z,726.72
2018-09-23T06:17:25.879Z,726.85
2018-09-23T06:18:26.423Z,726.50
2018-09-23T06:19:26.823Z,726.09
2018-09-23T06:20:27.296Z,726.65
2018-09-23T06:21:27.773Z,726.63
2018-09-23T06:22:28.243Z,726.90
2018-09-23T06:23:28.713Z,726.83
2018-09-23T06:24:29.188Z,726.89
2018-09-23T06:25:29.662Z,726.58
2018-09-23T06:26:30.133Z,726.75
2018-09-23T06:27:30.607Z,726.62
2018-09-23T06:28:31.081Z,726.79
2018-09-23T06:29:31.556Z,726.69
2018-09-23T06:30:32.028Z,726.85
2018-09-23T06:31:32.502Z,726.73
2018-09-23T06:32:32.975Z,726.10
2018-09-23T06:33:33.450Z,726.71
2018-09-23T06:34:33.925Z,726.56
2018-09-23T06:35:34.399Z,726.66
2018-09-23T06:36:34.875Z,726.89
2018-09-23T06:37:35.348Z,726.82
2018-09-23T06:38:35.821Z,726.86
2018-09-23T06:39:36.292Z,726.94
2018-09-23T06:40:36.772Z,726.67
2018-09-23T06:41:37.242Z,726.80
2018-09-23T06:42:37.722Z,726.67
2018-09-23T06:43:38.188Z,726.53
2018-09-23T06:44:38.662Z,726.56
2018-09-23T06:45:39.148Z,727.03
2018-09-23T06:46:39.608Z,726.77
2018-09-23T06:47:40.081Z,726.96
2018-09-23T06:48:40.551Z,726.89
2018-09-23T06:49:41.024Z,726.36
2018-09-23T06:50:41.496Z,726.72
2018-09-23T06:51:41.969Z,726.67
2018-09-23T06:52:42.440Z,727.07
2018-09-23T06:53:42.911Z,727.08
2018-09-23T06:54:43.386Z,726.76
2018-09-23T06:55:43.856Z,727.11
2018-09-23T06:56:44.329Z,726.87
2018-09-23T06:57:44.797Z,726.80
2018-09-23T06:58:45.273Z,726.94
2018-09-23T06:59:45.737Z,727.06
2018-09-23T07:00:46.209Z,726.88
2018-09-23T07:01:46.678Z,727.17
2018-09-23T07:02:47.158Z,727.03
2018-09-23T07:03:47.619Z,726.82
2018-09-23T07:04:48.115Z,726.61
2018-09-23T07:05:48.561Z,727.05
2018-09-23T07:06:49.031Z,726.87
2018-09-23T07:07:49.502Z,726.97
2018-09-23T07:08:49.969Z,727.00
2018-09-23T07:09:50.445Z,726.97
2018-09-23T07:10:50.913Z,726.68
2018-09-23T07:11:51.382Z,727.22
2018-09-23T07:12:51.850Z,726.78
2018-09-23T07:13:52.322Z,726.79
2018-09-23T07:14:52.792Z,727.09
2018-09-23T07:15:53.261Z,726.90
2018-09-23T07:16:53.734Z,727.16
2018-09-23T07:17:54.205Z,727.08
2018-09-23T07:18:54.877Z,727.31
2018-09-23T07:19:55.145Z,726.78
2018-09-23T07:20:55.621Z,727.23
2018-09-23T07:21:56.088Z,727.02
2018-09-23T07:22:56.560Z,727.03
2018-09-23T07:23:57.114Z,726.99
2018-09-23T07:24:57.504Z,727.24
2018-09-23T07:25:57.974Z,727.38
2018-09-23T07:26:58.447Z,727.04
2018-09-23T07:27:58.919Z,727.19
2018-09-23T07:28:59.390Z,727.19
2018-09-23T07:29:59.882Z,727.07
2018-09-23T07:31:00.335Z,727.35
2018-09-23T07:32:00.806Z,727.37
2018-09-23T07:33:01.284Z,727.10
2018-09-23T07:34:01.753Z,727.36
2018-09-23T07:35:02.227Z,727.53
2018-09-23T07:36:02.701Z,727.39
2018-09-23T07:37:03.276Z,726.94
2018-09-23T07:38:03.646Z,726.73
2018-09-23T07:39:04.119Z,727.40
2018-09-23T07:40:04.807Z,727.00
2018-09-23T07:41:05.066Z,727.51
2018-09-23T07:42:05.543Z,726.62
2018-09-23T07:43:06.017Z,727.44
2018-09-23T07:44:06.488Z,727.12
2018-09-23T07:45:06.963Z,727.12
2018-09-23T07:46:07.437Z,727.08
2018-09-23T07:47:07.911Z,726.95
2018-09-23T07:48:08.453Z,727.31
2018-09-23T07:49:08.857Z,727.58
2018-09-23T07:50:09.332Z,727.55
2018-09-23T07:51:09.806Z,727.34
2018-09-23T07:52:10.280Z,727.28
2018-09-23T07:53:10.752Z,727.43
2018-09-23T07:54:11.226Z,727.54
2018-09-23T07:55:11.699Z,727.39
2018-09-23T07:56:12.172Z,727.52
2018-09-23T07:57:12.649Z,727.57
2018-09-23T07:58:13.118Z,727.49
2018-09-23T07:59:13.592Z,727.03
2018-09-23T08:00:14.060Z,727.35
2018-09-23T08:01:14.534Z,727.45
2018-09-23T08:02:15.008Z,727.39
2018-09-23T08:03:15.478Z,727.32
2018-09-23T08:04:15.949Z,727.40
2018-09-23T08:05:16.456Z,726.87
2018-09-23T08:06:16.892Z,727.04
2018-09-23T08:07:17.364Z,727.42
2018-09-23T08:08:17.833Z,727.37
2018-09-23T08:09:18.307Z,727.15
2018-09-23T08:10:18.775Z,727.36
2018-09-23T08:11:19.246Z,727.54
2018-09-23T08:12:19.755Z,727.33
2018-09-23T08:13:20.269Z,727.33
2018-09-23T08:14:20.984Z,727.45
2018-09-23T08:15:21.127Z,727.32
2018-09-23T08:16:21.598Z,727.42
2018-09-23T08:17:22.107Z,727.51
2018-09-23T08:18:22.539Z,727.46
2018-09-23T08:19:23.085Z,727.41
2018-09-23T08:20:23.570Z,727.34
2018-09-23T08:21:23.987Z,727.34
2018-09-23T08:22:24.418Z,727.46
2018-09-23T08:23:24.890Z,727.70
2018-09-23T08:24:25.358Z,727.67
2018-09-23T08:25:25.892Z,727.78
2018-09-23T08:26:26.378Z,727.60
2018-09-23T08:27:26.771Z,727.69
2018-09-23T08:28:27.241Z,727.50
2018-09-23T08:29:27.712Z,727.69
2018-09-23T08:30:28.189Z,727.43
2018-09-23T08:31:28.655Z,727.53
2018-09-23T08:32:29.132Z,727.61
2018-09-23T08:33:29.598Z,727.66
2018-09-23T08:34:30.072Z,727.68
2018-09-23T08:35:30.542Z,727.71
2018-09-23T08:36:31.012Z,727.77
2018-09-23T08:37:31.555Z,727.54
2018-09-23T08:38:31.958Z,727.84
2018-09-23T08:39:32.431Z,727.91
2018-09-23T08:40:32.902Z,727.97
2018-09-23T08:41:33.377Z,728.11
2018-09-23T08:42:33.847Z,727.99
2018-09-23T08:43:34.322Z,727.64
2018-09-23T08:44:34.792Z,727.19
2018-09-23T08:45:35.266Z,727.18
2018-09-23T08:46:35.743Z,727.56
2018-09-23T08:47:36.214Z,727.69
2018-09-23T08:48:36.686Z,727.72
2018-09-23T08:49:37.162Z,727.74
2018-09-23T08:50:37.634Z,727.66
2018-09-23T08:51:38.131Z,727.77
2018-09-23T08:52:38.588Z,727.54
2018-09-23T08:53:39.061Z,727.61
2018-09-23T08:54:39.529Z,727.64
2018-09-23T08:55:40.011Z,727.67
2018-09-23T08:56:40.479Z,727.43
2018-09-23T08:57:41.016Z,727.62
2018-09-23T08:58:41.425Z,727.58
2018-09-23T08:59:41.900Z,727.18
2018-09-23T09:00:42.373Z,727.57
2018-09-23T09:01:42.846Z,727.59
2018-09-23T09:02:43.321Z,727.49
2018-09-23T09:03:43.834Z,727.39
2018-09-23T09:04:44.264Z,727.43
2018-09-23T09:05:44.740Z,727.66
2018-09-23T09:06:45.211Z,727.36
2018-09-23T09:07:45.684Z,727.46
2018-09-23T09:08:46.155Z,727.40
2018-09-23T09:09:46.627Z,727.53
2018-09-23T09:10:47.100Z,727.42
2018-09-23T09:11:47.606Z,727.48
2018-09-23T09:12:48.043Z,727.44
2018-09-23T09:13:48.515Z,727.63
2018-09-23T09:14:48.987Z,727.78
2018-09-23T09:15:49.460Z,727.66
2018-09-23T09:16:49.933Z,727.67
2018-09-23T09:17:50.400Z,727.56
2018-09-23T09:18:50.929Z,727.64
2018-09-23T09:19:51.342Z,727.65
2018-09-23T09:20:51.816Z,727.59
2018-09-23T09:21:52.284Z,727.58
2018-09-23T09:22:52.753Z,727.61
2018-09-23T09:23:53.224Z,727.39
2018-09-23T09:24:53.692Z,727.58
2018-09-23T09:25:54.163Z,727.51
2018-09-23T09:26:54.671Z,727.65
2018-09-23T09:27:55.105Z,727.60
2018-09-23T09:28:55.573Z,727.51
2018-09-23T09:29:56.044Z,727.59
2018-09-23T09:30:56.515Z,727.58
2018-09-23T09:31:56.987Z,727.54
2018-09-23T09:32:57.454Z,727.61
2018-09-23T09:33:57.929Z,727.51
2018-09-23T09:34:58.397Z,727.63
2018-09-23T09:35:58.867Z,727.38
2018-09-23T09:36:59.338Z,726.51
2018-09-23T09:37:59.809Z,727.28
2018-09-23T09:39:00.279Z,727.49
2018-09-23T09:40:00.750Z,727.67
2018-09-23T09:41:01.222Z,727.47
2018-09-23T09:42:01.692Z,727.14
2018-09-23T09:43:02.163Z,727.46
2018-09-23T09:44:02.655Z,727.65
2018-09-23T09:45:03.105Z,727.55
2018-09-23T09:46:03.579Z,727.46
2018-09-23T09:47:04.054Z,727.41
2018-09-23T09:48:04.524Z,727.21
2018-09-23T09:49:04.995Z,727.33
2018-09-23T09:50:05.467Z,727.25
2018-09-23T09:51:05.942Z,727.46
2018-09-23T09:52:06.416Z,727.37
2018-09-23T09:53:06.885Z,727.47
2018-09-23T09:54:07.361Z,727.38
2018-09-23T09:55:07.834Z,727.04
2018-09-23T09:56:08.309Z,727.26
2018-09-23T09:57:08.783Z,727.31
2018-09-23T09:58:09.253Z,727.12
2018-09-23T09:59:09.728Z,727.03
2018-09-23T10:00:10.202Z,727.27
2018-09-23T10:01:10.675Z,727.19
2018-09-23T10:02:11.148Z,727.28
2018-09-23T10:03:11.624Z,727.38
2018-09-23T10:04:12.183Z,727.46
2018-09-23T10:05:12.570Z,727.45
2018-09-23T10:06:13.044Z,727.52
2018-09-23T10:07:13.522Z,727.60
2018-09-23T10:08:13.991Z,727.58
2018-09-23T10:09:14.465Z,727.45
2018-09-23T10:10:14.939Z,727.13
2018-09-23T10:11:15.411Z,727.41
2018-09-23T10:12:15.888Z,727.51
2018-09-23T10:13:16.358Z,727.61
2018-09-23T10:14:16.833Z,727.52
2018-09-23T10:15:17.307Z,727.39
2018-09-23T10:16:17.779Z,727.28
2018-09-23T10:17:18.250Z,727.02
2018-09-23T10:18:18.723Z,727.55
2018-09-23T10:19:19.198Z,727.48
2018-09-23T10:20:19.669Z,727.31
2018-09-23T10:21:20.150Z,727.42
2018-09-23T10:22:20.613Z,727.53
2018-09-23T10:23:21.176Z,727.26
2018-09-23T10:24:21.555Z,726.94
2018-09-23T10:25:22.029Z,727.48
2018-09-23T10:26:22.499Z,727.57
2018-09-23T10:27:22.970Z,727.35
2018-09-23T10:28:23.441Z,727.04
2018-09-23T10:29:23.913Z,727.62
2018-09-23T10:30:24.390Z,727.23
2018-09-23T10:31:24.968Z,727.33
2018-09-23T10:32:25.325Z,727.59
2018-09-23T10:33:25.792Z,727.22
2018-09-23T10:34:26.263Z,727.50
2018-09-23T10:35:26.735Z,727.45
2018-09-23T10:36:27.207Z,727.52
2018-09-23T10:37:27.674Z,727.30
2018-09-23T10:38:28.145Z,727.43
2018-09-23T10:39:28.617Z,727.43
2018-09-23T10:40:29.090Z,727.44
2018-09-23T10:41:29.554Z,727.56
2018-09-23T10:42:30.027Z,727.17
2018-09-23T10:43:30.497Z,727.43
2018-09-23T10:44:30.968Z,727.53
2018-09-23T10:45:31.438Z,727.27
2018-09-23T10:46:31.908Z,727.15
2018-09-23T10:47:32.581Z,727.50
2018-09-23T10:48:32.860Z,727.29
2018-09-23T10:49:33.322Z,727.47
2018-09-23T10:50:33.791Z,727.29
2018-09-23T10:51:34.263Z,727.35
2018-09-23T10:52:34.735Z,727.08
2018-09-23T10:53:35.207Z,727.06
2018-09-23T10:54:35.677Z,727.51
2018-09-23T10:55:36.202Z,727.12
2018-09-23T10:56:36.623Z,727.52
2018-09-23T10:57:37.096Z,727.15
2018-09-23T10:58:37.566Z,727.32
2018-09-23T10:59:38.045Z,727.45
2018-09-23T11:00:38.516Z,727.46
2018-09-23T11:01:38.984Z,727.44
2018-09-23T11:02:39.458Z,727.31
2018-09-23T11:03:39.942Z,727.03
2018-09-23T11:04:40.405Z,727.49
2018-09-23T11:05:40.881Z,727.28
2018-09-23T11:06:41.351Z,727.25
2018-09-23T11:07:41.826Z,726.96
2018-09-23T11:08:42.298Z,727.47
2018-09-23T11:09:42.786Z,727.38
2018-09-23T11:10:43.246Z,727.25
2018-09-23T11:11:43.724Z,727.04
2018-09-23T11:12:44.195Z,727.28
2018-09-23T11:13:44.669Z,727.40
2018-09-23T11:14:45.144Z,727.64
2018-09-23T11:15:45.617Z,727.43
2018-09-23T11:16:46.093Z,726.98
2018-09-23T11:17:46.564Z,727.18
2018-09-23T11:18:47.043Z,727.21
2018-09-23T11:19:47.512Z,726.91
2018-09-23T11:20:47.990Z,727.24
2018-09-23T11:21:48.461Z,727.30
2018-09-23T11:22:48.933Z,726.89
2018-09-23T11:23:49.406Z,727.20
2018-09-23T11:24:49.892Z,727.34
2018-09-23T11:25:50.353Z,727.24
2018-09-23T11:26:50.824Z,727.23
2018-09-23T11:27:51.299Z,727.14
2018-09-23T11:28:51.771Z,726.96
2018-09-23T11:29:52.241Z,727.08
2018-09-23T11:30:52.721Z,727.15
2018-09-23T11:31:53.187Z,727.22
2018-09-23T11:32:53.658Z,727.05
2018-09-23T11:33:54.129Z,727.34
2018-09-23T11:34:54.601Z,727.38
2018-09-23T11:35:55.074Z,727.00
2018-09-23T11:36:55.544Z,726.93
2018-09-23T11:37:56.015Z,726.91
2018-09-23T11:38:56.489Z,726.91
2018-09-23T11:39:56.970Z,727.30
2018-09-23T11:40:57.426Z,727.28
2018-09-23T11:41:57.900Z,727.54
2018-09-23T11:42:58.382Z,727.27
2018-09-23T11:43:58.838Z,727.23
2018-09-23T11:44:59.308Z,726.85
2018-09-23T11:45:59.780Z,727.04
2018-09-23T11:47:00.248Z,727.20
2018-09-23T11:48:00.722Z,727.37
2018-09-23T11:49:01.191Z,727.26
2018-09-23T11:50:01.661Z,727.22
2018-09-23T11:51:02.132Z,727.31
2018-09-23T11:52:02.604Z,727.25
2018-09-23T11:53:03.072Z,727.30
2018-09-23T11:54:03.541Z,727.08
2018-09-23T11:55:04.011Z,727.18
2018-09-23T11:56:04.484Z,727.43
2018-09-23T11:57:04.954Z,727.08
2018-09-23T11:58:05.425Z,727.04
2018-09-23T11:59:06.000Z,726.93
2018-09-23T12:00:06.367Z,727.02
2018-09-23T12:01:06.842Z,726.85
2018-09-23T12:02:07.356Z,727.00
2018-09-23T12:03:07.784Z,726.95
2018-09-23T12:04:08.251Z,726.92
2018-09-23T12:05:08.726Z,727.11
2018-09-23T12:06:09.196Z,726.78
2018-09-23T12:07:09.671Z,727.00
2018-09-23T12:08:10.140Z,726.91
2018-09-23T12:09:10.613Z,726.80
2018-09-23T12:10:11.127Z,727.18
2018-09-23T12:11:11.559Z,726.95
2018-09-23T12:12:12.035Z,727.06
2018-09-23T12:13:12.507Z,726.90
2018-09-23T12:14:12.978Z,727.12
2018-09-23T12:15:13.453Z,726.98
2018-09-23T12:16:13.927Z,726.89
2018-09-23T12:17:14.401Z,726.83
2018-09-23T12:18:14.874Z,726.94
2018-09-23T12:19:15.348Z,726.83
2018-09-23T12:20:15.822Z,726.81
2018-09-23T12:21:16.298Z,726.98
2018-09-23T12:22:16.770Z,727.09
2018-09-23T12:23:17.246Z,726.79
2018-09-23T12:24:17.719Z,726.86
2018-09-23T12:25:18.230Z,726.78
2018-09-23T12:26:18.669Z,726.91
2018-09-23T12:27:19.141Z,726.99
2018-09-23T12:28:19.620Z,726.88
2018-09-23T12:29:20.090Z,726.89
2018-09-23T12:30:20.565Z,726.56
2018-09-23T12:31:21.037Z,726.71
2018-09-23T12:32:21.511Z,726.79
2018-09-23T12:33:22.022Z,726.78
2018-09-23T12:34:22.458Z,726.75